sensor_id;sensor_type;location;lat;lon;timestamp;temperature;humidity
60033;DHT22;45905;50.570;10.428;2023-05-27T00:00:42;10.60;68.00
60033;DHT22;45905;50.570;10.428;2023-05-27T00:03:09;10.60;68.30
60033;DHT22;45905;50.570;10.428;2023-05-27T00:05:37;10.50;67.70
60033;DHT22;45905;50.570;10.428;2023-05-27T00:08:04;10.50;68.00
60033;DHT22;45905;50.570;10.428;2023-05-27T00:10:31;10.40;67.80
60033;DHT22;45905;50.570;10.428;2023-05-27T00:12:59;10.40;67.70
60033;DHT22;45905;50.570;10.428;2023-05-27T00:15:26;10.20;67.40
60033;DHT22;45905;50.570;10.428;2023-05-27T00:17:53;10.20;67.80
60033;DHT22;45905;50.570;10.428;2023-05-27T00:20:22;10.20;68.00
60033;DHT22;45905;50.570;10.428;2023-05-27T00:22:50;10.20;67.40
60033;DHT22;45905;50.570;10.428;2023-05-27T00:25:17;10.10;67.80
60033;DHT22;45905;50.570;10.428;2023-05-27T00:27:48;10.10;68.00
60033;DHT22;45905;50.570;10.428;2023-05-27T00:30:16;10.10;68.60
60033;DHT22;45905;50.570;10.428;2023-05-27T00:32:43;10.00;68.30
60033;DHT22;45905;50.570;10.428;2023-05-27T00:35:10;9.90;69.80
60033;DHT22;45905;50.570;10.428;2023-05-27T00:37:38;9.90;70.00
60033;DHT22;45905;50.570;10.428;2023-05-27T00:40:10;9.90;70.60
60033;DHT22;45905;50.570;10.428;2023-05-27T00:42:39;9.80;70.90
60033;DHT22;45905;50.570;10.428;2023-05-27T00:45:07;9.80;71.20
60033;DHT22;45905;50.570;10.428;2023-05-27T00:47:35;9.80;71.80
60033;DHT22;45905;50.570;10.428;2023-05-27T00:50:03;9.70;72.00
60033;DHT22;45905;50.570;10.428;2023-05-27T00:52:31;9.70;71.20
60033;DHT22;45905;50.570;10.428;2023-05-27T00:54:59;9.70;71.30
60033;DHT22;45905;50.570;10.428;2023-05-27T00:57:27;9.60;71.80
60033;DHT22;45905;50.570;10.428;2023-05-27T00:59:55;9.60;72.20
60033;DHT22;45905;50.570;10.428;2023-05-27T01:02:22;9.50;71.60
60033;DHT22;45905;50.570;10.428;2023-05-27T01:04:50;9.50;71.60
60033;DHT22;45905;50.570;10.428;2023-05-27T01:10:48;9.40;72.90
60033;DHT22;45905;50.570;10.428;2023-05-27T01:15:53;9.30;73.30
60033;DHT22;45905;50.570;10.428;2023-05-27T01:18:22;9.30;73.30
60033;DHT22;45905;50.570;10.428;2023-05-27T01:20:53;9.30;73.20
60033;DHT22;45905;50.570;10.428;2023-05-27T01:23:29;9.20;72.40
60033;DHT22;45905;50.570;10.428;2023-05-27T01:25:58;9.20;72.70
60033;DHT22;45905;50.570;10.428;2023-05-27T01:28:26;9.20;72.40
60033;DHT22;45905;50.570;10.428;2023-05-27T01:30:57;9.10;73.30
60033;DHT22;45905;50.570;10.428;2023-05-27T01:33:29;9.10;74.20
60033;DHT22;45905;50.570;10.428;2023-05-27T01:36:09;9.00;73.60
60033;DHT22;45905;50.570;10.428;2023-05-27T01:38:43;9.00;74.00
60033;DHT22;45905;50.570;10.428;2023-05-27T01:41:14;9.00;73.90
60033;DHT22;45905;50.570;10.428;2023-05-27T01:43:45;8.90;73.10
60033;DHT22;45905;50.570;10.428;2023-05-27T01:46:13;8.90;73.40
60033;DHT22;45905;50.570;10.428;2023-05-27T01:48:40;8.80;73.70
60033;DHT22;45905;50.570;10.428;2023-05-27T01:51:07;8.80;73.90
60033;DHT22;45905;50.570;10.428;2023-05-27T01:53:35;8.70;74.40
60033;DHT22;45905;50.570;10.428;2023-05-27T01:56:02;8.70;74.40
60033;DHT22;45905;50.570;10.428;2023-05-27T01:58:30;8.70;74.80
60033;DHT22;45905;50.570;10.428;2023-05-27T02:00:57;8.70;75.30
60033;DHT22;45905;50.570;10.428;2023-05-27T02:03:24;8.60;75.00
60033;DHT22;45905;50.570;10.428;2023-05-27T02:05:51;8.60;74.60
60033;DHT22;45905;50.570;10.428;2023-05-27T02:08:19;8.60;75.10
60033;DHT22;45905;50.570;10.428;2023-05-27T02:10:46;8.50;74.50
60033;DHT22;45905;50.570;10.428;2023-05-27T02:13:13;8.50;74.80
60033;DHT22;45905;50.570;10.428;2023-05-27T02:15:41;8.40;75.20
60033;DHT22;45905;50.570;10.428;2023-05-27T02:18:08;8.40;75.70
60033;DHT22;45905;50.570;10.428;2023-05-27T02:20:36;8.40;75.70
60033;DHT22;45905;50.570;10.428;2023-05-27T02:23:06;8.40;75.60
60033;DHT22;45905;50.570;10.428;2023-05-27T02:25:34;8.30;75.70
60033;DHT22;45905;50.570;10.428;2023-05-27T02:28:01;8.30;76.20
60033;DHT22;45905;50.570;10.428;2023-05-27T02:30:30;8.20;75.40
60033;DHT22;45905;50.570;10.428;2023-05-27T02:32:59;8.30;76.20
60033;DHT22;45905;50.570;10.428;2023-05-27T02:35:27;8.20;76.70
60033;DHT22;45905;50.570;10.428;2023-05-27T02:37:55;8.10;76.90
60033;DHT22;45905;50.570;10.428;2023-05-27T02:40:26;8.10;76.80
60033;DHT22;45905;50.570;10.428;2023-05-27T02:42:56;8.10;77.30
60033;DHT22;45905;50.570;10.428;2023-05-27T02:45:26;8.00;76.90
60033;DHT22;45905;50.570;10.428;2023-05-27T02:47:54;8.00;77.20
60033;DHT22;45905;50.570;10.428;2023-05-27T02:50:27;7.90;75.70
60033;DHT22;45905;50.570;10.428;2023-05-27T02:52:54;7.90;76.30
60033;DHT22;45905;50.570;10.428;2023-05-27T02:55:22;7.80;77.80
60033;DHT22;45905;50.570;10.428;2023-05-27T02:57:49;7.80;78.30
60033;DHT22;45905;50.570;10.428;2023-05-27T03:00:17;7.80;78.80
60033;DHT22;45905;50.570;10.428;2023-05-27T03:02:44;7.70;79.20
60033;DHT22;45905;50.570;10.428;2023-05-27T03:05:11;7.70;79.20
60033;DHT22;45905;50.570;10.428;2023-05-27T03:07:38;7.70;78.80
60033;DHT22;45905;50.570;10.428;2023-05-27T03:10:08;7.70;77.90
60033;DHT22;45905;50.570;10.428;2023-05-27T03:12:35;7.70;77.80
60033;DHT22;45905;50.570;10.428;2023-05-27T03:15:03;7.60;77.80
60033;DHT22;45905;50.570;10.428;2023-05-27T03:17:31;7.60;78.40
60033;DHT22;45905;50.570;10.428;2023-05-27T03:19:58;7.60;79.00
60033;DHT22;45905;50.570;10.428;2023-05-27T03:22:25;7.60;79.00
60033;DHT22;45905;50.570;10.428;2023-05-27T03:24:52;7.50;79.00
60033;DHT22;45905;50.570;10.428;2023-05-27T03:27:21;7.50;79.80
60033;DHT22;45905;50.570;10.428;2023-05-27T03:29:49;9.90;82.30
60033;DHT22;45905;50.570;10.428;2023-05-27T03:32:17;7.40;80.00
60033;DHT22;45905;50.570;10.428;2023-05-27T03:34:47;7.40;80.40
60033;DHT22;45905;50.570;10.428;2023-05-27T03:37:14;7.40;80.80
60033;DHT22;45905;50.570;10.428;2023-05-27T03:39:54;7.40;80.30
60033;DHT22;45905;50.570;10.428;2023-05-27T03:42:22;7.90;80.40
60033;DHT22;45905;50.570;10.428;2023-05-27T03:44:49;7.30;79.00
60033;DHT22;45905;50.570;10.428;2023-05-27T03:47:16;7.30;79.00
60033;DHT22;45905;50.570;10.428;2023-05-27T03:49:48;7.20;80.10
60033;DHT22;45905;50.570;10.428;2023-05-27T03:52:18;7.30;80.60
60033;DHT22;45905;50.570;10.428;2023-05-27T03:54:46;7.30;81.20
60033;DHT22;45905;50.570;10.428;2023-05-27T03:57:13;7.20;81.00
60033;DHT22;45905;50.570;10.428;2023-05-27T03:59:40;7.20;81.30
60033;DHT22;45905;50.570;10.428;2023-05-27T04:02:07;7.20;81.20
60033;DHT22;45905;50.570;10.428;2023-05-27T04:04:35;7.10;81.20
60033;DHT22;45905;50.570;10.428;2023-05-27T04:07:02;7.20;82.10
60033;DHT22;45905;50.570;10.428;2023-05-27T04:09:30;7.10;82.00
60033;DHT22;45905;50.570;10.428;2023-05-27T04:11:58;3.90;79.20
60033;DHT22;45905;50.570;10.428;2023-05-27T04:14:25;7.10;82.60
60033;DHT22;45905;50.570;10.428;2023-05-27T04:16:53;7.10;83.10
60033;DHT22;45905;50.570;10.428;2023-05-27T04:19:20;7.10;82.80
60033;DHT22;45905;50.570;10.428;2023-05-27T04:21:48;7.10;82.40
60033;DHT22;45905;50.570;10.428;2023-05-27T04:24:15;7.10;82.00
60033;DHT22;45905;50.570;10.428;2023-05-27T04:26:44;7.10;81.90
60033;DHT22;45905;50.570;10.428;2023-05-27T04:29:14;7.10;82.00
60033;DHT22;45905;50.570;10.428;2023-05-27T04:31:43;7.10;83.30
60033;DHT22;45905;50.570;10.428;2023-05-27T04:34:15;7.10;84.40
60033;DHT22;45905;50.570;10.428;2023-05-27T04:36:45;7.20;85.60
60033;DHT22;45905;50.570;10.428;2023-05-27T04:39:19;9.80;87.90
60033;DHT22;45905;50.570;10.428;2023-05-27T04:41:46;7.30;85.80
60033;DHT22;45905;50.570;10.428;2023-05-27T04:44:23;7.30;85.70
60033;DHT22;45905;50.570;10.428;2023-05-27T04:46:55;7.30;85.10
60033;DHT22;45905;50.570;10.428;2023-05-27T04:49:22;7.40;85.40
60033;DHT22;45905;50.570;10.428;2023-05-27T04:51:50;7.40;85.30
60033;DHT22;45905;50.570;10.428;2023-05-27T04:54:19;7.50;85.10
60033;DHT22;45905;50.570;10.428;2023-05-27T04:56:49;7.50;85.80
60033;DHT22;45905;50.570;10.428;2023-05-27T04:59:24;7.50;86.40
60033;DHT22;45905;50.570;10.428;2023-05-27T05:01:57;7.60;86.60
60033;DHT22;45905;50.570;10.428;2023-05-27T05:04:54;7.70;86.30
60033;DHT22;45905;50.570;10.428;2023-05-27T05:07:22;7.80;86.70
60033;DHT22;45905;50.570;10.428;2023-05-27T05:09:50;7.80;86.50
60033;DHT22;45905;50.570;10.428;2023-05-27T05:12:25;7.90;86.70
60033;DHT22;45905;50.570;10.428;2023-05-27T05:14:52;8.00;87.00
60033;DHT22;45905;50.570;10.428;2023-05-27T05:17:20;8.00;87.50
60033;DHT22;45905;50.570;10.428;2023-05-27T05:19:51;12.70;90.30
60033;DHT22;45905;50.570;10.428;2023-05-27T05:22:19;8.00;87.80
60033;DHT22;45905;50.570;10.428;2023-05-27T05:24:50;8.10;89.40
60033;DHT22;45905;50.570;10.428;2023-05-27T05:27:24;8.70;88.00
60033;DHT22;45905;50.570;10.428;2023-05-27T05:34:48;8.60;91.10
60033;DHT22;45905;50.570;10.428;2023-05-27T05:37:16;8.60;87.80
60033;DHT22;45905;50.570;10.428;2023-05-27T05:44:40;8.30;94.50
60033;DHT22;45905;50.570;10.428;2023-05-27T05:52:04;9.20;93.40
60033;DHT22;45905;50.570;10.428;2023-05-27T05:54:32;8.80;93.60
60033;DHT22;45905;50.570;10.428;2023-05-27T05:57:00;8.90;88.50
60033;DHT22;45905;50.570;10.428;2023-05-27T05:59:28;9.10;92.30
60033;DHT22;45905;50.570;10.428;2023-05-27T06:09:37;9.10;91.00
60033;DHT22;45905;50.570;10.428;2023-05-27T06:12:09;9.30;91.00
60033;DHT22;45905;50.570;10.428;2023-05-27T06:14:43;9.30;90.70
60033;DHT22;45905;50.570;10.428;2023-05-27T06:29:46;9.80;88.50
60033;DHT22;45905;50.570;10.428;2023-05-27T06:34:46;9.70;88.80
60033;DHT22;45905;50.570;10.428;2023-05-27T06:37:13;9.80;89.30
60033;DHT22;45905;50.570;10.428;2023-05-27T06:39:41;10.10;88.20
60033;DHT22;45905;50.570;10.428;2023-05-27T06:42:08;10.40;93.40
60033;DHT22;45905;50.570;10.428;2023-05-27T06:44:46;9.90;90.30
60033;DHT22;45905;50.570;10.428;2023-05-27T07:03:12;10.70;88.30
60033;DHT22;45905;50.570;10.428;2023-05-27T07:05:39;11.30;91.00
60033;DHT22;45905;50.570;10.428;2023-05-27T07:08:07;11.30;88.60
60033;DHT22;45905;50.570;10.428;2023-05-27T07:13:02;11.80;89.90
60033;DHT22;45905;50.570;10.428;2023-05-27T07:18:08;11.70;91.70
60033;DHT22;45905;50.570;10.428;2023-05-27T07:25:35;11.80;92.80
60033;DHT22;45905;50.570;10.428;2023-05-27T07:28:02;11.90;85.60
60033;DHT22;45905;50.570;10.428;2023-05-27T07:30:31;12.00;84.50
60033;DHT22;45905;50.570;10.428;2023-05-27T07:33:01;12.20;86.00
60033;DHT22;45905;50.570;10.428;2023-05-27T07:35:28;12.10;85.00
60033;DHT22;45905;50.570;10.428;2023-05-27T07:37:56;12.30;85.40
60033;DHT22;45905;50.570;10.428;2023-05-27T07:40:23;12.50;85.10
60033;DHT22;45905;50.570;10.428;2023-05-27T07:42:50;12.40;84.20
60033;DHT22;45905;50.570;10.428;2023-05-27T07:45:18;12.50;83.50
60033;DHT22;45905;50.570;10.428;2023-05-27T07:47:46;12.60;83.40
60033;DHT22;45905;50.570;10.428;2023-05-27T07:50:13;12.80;83.40
60033;DHT22;45905;50.570;10.428;2023-05-27T07:52:44;12.80;83.00
60033;DHT22;45905;50.570;10.428;2023-05-27T07:55:23;13.20;82.10
60033;DHT22;45905;50.570;10.428;2023-05-27T07:57:50;12.90;82.30
60033;DHT22;45905;50.570;10.428;2023-05-27T08:00:17;12.90;82.10
60033;DHT22;45905;50.570;10.428;2023-05-27T08:02:53;13.00;82.40
60033;DHT22;45905;50.570;10.428;2023-05-27T08:05:30;12.90;82.40
60033;DHT22;45905;50.570;10.428;2023-05-27T08:08:26;13.20;80.80
60033;DHT22;45905;50.570;10.428;2023-05-27T08:11:12;13.40;80.00
60033;DHT22;45905;50.570;10.428;2023-05-27T08:14:05;13.40;80.30
60033;DHT22;45905;50.570;10.428;2023-05-27T08:16:32;13.60;79.50
60033;DHT22;45905;50.570;10.428;2023-05-27T08:19:09;13.40;79.10
60033;DHT22;45905;50.570;10.428;2023-05-27T08:21:49;13.80;78.40
60033;DHT22;45905;50.570;10.428;2023-05-27T08:24:42;13.90;78.40
60033;DHT22;45905;50.570;10.428;2023-05-27T08:27:50;13.80;78.80
60033;DHT22;45905;50.570;10.428;2023-05-27T08:30:39;13.90;79.10
60033;DHT22;45905;50.570;10.428;2023-05-27T08:33:10;14.00;79.00
60033;DHT22;45905;50.570;10.428;2023-05-27T08:35:37;14.10;77.40
60033;DHT22;45905;50.570;10.428;2023-05-27T08:38:04;14.20;77.60
60033;DHT22;45905;50.570;10.428;2023-05-27T08:40:38;14.40;77.70
60033;DHT22;45905;50.570;10.428;2023-05-27T08:43:06;14.50;77.40
60033;DHT22;45905;50.570;10.428;2023-05-27T08:45:38;14.40;76.90
60033;DHT22;45905;50.570;10.428;2023-05-27T08:48:08;14.70;76.20
60033;DHT22;45905;50.570;10.428;2023-05-27T08:50:38;14.70;75.50
60033;DHT22;45905;50.570;10.428;2023-05-27T08:53:07;14.80;76.10
60033;DHT22;45905;50.570;10.428;2023-05-27T08:55:37;14.90;76.00
60033;DHT22;45905;50.570;10.428;2023-05-27T08:58:09;15.00;73.40
60033;DHT22;45905;50.570;10.428;2023-05-27T09:00:42;15.10;71.90
60033;DHT22;45905;50.570;10.428;2023-05-27T09:03:28;15.20;71.20
60033;DHT22;45905;50.570;10.428;2023-05-27T09:05:56;15.20;69.40
60033;DHT22;45905;50.570;10.428;2023-05-27T09:08:23;15.20;69.00
60033;DHT22;45905;50.570;10.428;2023-05-27T09:11:05;15.40;70.10
60033;DHT22;45905;50.570;10.428;2023-05-27T09:13:34;15.40;70.00
60033;DHT22;45905;50.570;10.428;2023-05-27T09:16:03;15.60;70.00
60033;DHT22;45905;50.570;10.428;2023-05-27T09:18:34;15.80;69.30
60033;DHT22;45905;50.570;10.428;2023-05-27T09:21:02;15.70;69.70
60033;DHT22;45905;50.570;10.428;2023-05-27T09:23:29;15.70;68.90
60033;DHT22;45905;50.570;10.428;2023-05-27T09:25:59;15.90;67.10
60033;DHT22;45905;50.570;10.428;2023-05-27T09:28:26;15.80;67.00
60033;DHT22;45905;50.570;10.428;2023-05-27T09:31:01;16.10;66.70
60033;DHT22;45905;50.570;10.428;2023-05-27T09:33:34;16.10;67.10
60033;DHT22;45905;50.570;10.428;2023-05-27T09:36:03;16.20;66.20
60033;DHT22;45905;50.570;10.428;2023-05-27T09:38:32;16.20;66.80
60033;DHT22;45905;50.570;10.428;2023-05-27T09:41:01;16.40;66.30
60033;DHT22;45905;50.570;10.428;2023-05-27T09:43:30;16.40;63.60
60033;DHT22;45905;50.570;10.428;2023-05-27T09:46:02;16.40;63.40
60033;DHT22;45905;50.570;10.428;2023-05-27T09:48:34;16.50;56.00
60033;DHT22;45905;50.570;10.428;2023-05-27T09:51:04;16.60;54.60
60033;DHT22;45905;50.570;10.428;2023-05-27T09:53:33;16.60;55.20
60033;DHT22;45905;50.570;10.428;2023-05-27T09:56:04;16.70;53.80
60033;DHT22;45905;50.570;10.428;2023-05-27T09:58:31;16.70;53.50
60033;DHT22;45905;50.570;10.428;2023-05-27T10:00:59;16.70;53.10
60033;DHT22;45905;50.570;10.428;2023-05-27T10:03:26;16.70;53.40
60033;DHT22;45905;50.570;10.428;2023-05-27T10:05:55;16.70;55.00
60033;DHT22;45905;50.570;10.428;2023-05-27T10:08:23;17.00;56.60
60033;DHT22;45905;50.570;10.428;2023-05-27T10:10:53;16.90;57.00
60033;DHT22;45905;50.570;10.428;2023-05-27T10:13:23;17.20;47.90
60033;DHT22;45905;50.570;10.428;2023-05-27T10:15:52;17.20;47.20
60033;DHT22;45905;50.570;10.428;2023-05-27T10:18:26;17.20;47.40
60033;DHT22;45905;50.570;10.428;2023-05-27T10:20:58;17.20;47.70
60033;DHT22;45905;50.570;10.428;2023-05-27T10:23:29;17.40;46.20
60033;DHT22;45905;50.570;10.428;2023-05-27T10:26:05;17.50;45.30
60033;DHT22;45905;50.570;10.428;2023-05-27T10:28:35;17.60;42.00
60033;DHT22;45905;50.570;10.428;2023-05-27T10:31:15;17.70;41.90
60033;DHT22;45905;50.570;10.428;2023-05-27T10:33:48;17.80;43.40
60033;DHT22;45905;50.570;10.428;2023-05-27T10:36:28;17.80;43.50
60033;DHT22;45905;50.570;10.428;2023-05-27T10:39:02;17.90;41.70
60033;DHT22;45905;50.570;10.428;2023-05-27T10:41:50;18.00;41.20
60033;DHT22;45905;50.570;10.428;2023-05-27T10:44:35;18.20;40.30
60033;DHT22;45905;50.570;10.428;2023-05-27T10:47:04;18.40;41.70
60033;DHT22;45905;50.570;10.428;2023-05-27T10:49:39;18.40;41.70
60033;DHT22;45905;50.570;10.428;2023-05-27T10:52:08;18.50;36.30
60033;DHT22;45905;50.570;10.428;2023-05-27T10:54:40;18.60;35.90
60033;DHT22;45905;50.570;10.428;2023-05-27T10:57:09;18.60;34.90
60033;DHT22;45905;50.570;10.428;2023-05-27T11:02:31;18.60;38.50
60033;DHT22;45905;50.570;10.428;2023-05-27T11:04:58;18.70;39.50
60033;DHT22;45905;50.570;10.428;2023-05-27T11:07:25;18.70;38.60
60033;DHT22;45905;50.570;10.428;2023-05-27T11:09:54;18.80;38.70
60033;DHT22;45905;50.570;10.428;2023-05-27T11:12:23;18.90;38.60
60033;DHT22;45905;50.570;10.428;2023-05-27T11:14:52;19.00;36.20
60033;DHT22;45905;50.570;10.428;2023-05-27T11:17:22;19.00;35.80
60033;DHT22;45905;50.570;10.428;2023-05-27T11:19:50;19.00;36.10
60033;DHT22;45905;50.570;10.428;2023-05-27T11:22:18;19.10;34.90
60033;DHT22;45905;50.570;10.428;2023-05-27T11:24:59;19.20;38.10
60033;DHT22;45905;50.570;10.428;2023-05-27T11:27:38;19.30;38.20
60033;DHT22;45905;50.570;10.428;2023-05-27T11:30:10;19.40;35.30
60033;DHT22;45905;50.570;10.428;2023-05-27T11:32:41;19.50;37.10
60033;DHT22;45905;50.570;10.428;2023-05-27T11:35:18;19.60;37.30
60033;DHT22;45905;50.570;10.428;2023-05-27T11:37:51;19.80;39.00
60033;DHT22;45905;50.570;10.428;2023-05-27T11:40:19;19.80;38.10
60033;DHT22;45905;50.570;10.428;2023-05-27T11:42:47;20.00;40.50
60033;DHT22;45905;50.570;10.428;2023-05-27T11:45:19;20.20;40.00
60033;DHT22;45905;50.570;10.428;2023-05-27T11:47:48;20.90;39.60
60033;DHT22;45905;50.570;10.428;2023-05-27T11:50:21;20.70;39.50
60033;DHT22;45905;50.570;10.428;2023-05-27T11:52:54;20.80;38.80
60033;DHT22;45905;50.570;10.428;2023-05-27T11:55:23;20.90;37.10
60033;DHT22;45905;50.570;10.428;2023-05-27T12:00:19;21.10;36.20
60033;DHT22;45905;50.570;10.428;2023-05-27T12:02:46;21.60;36.60
60033;DHT22;45905;50.570;10.428;2023-05-27T12:05:14;21.30;36.50
60033;DHT22;45905;50.570;10.428;2023-05-27T12:07:58;21.20;36.50
60033;DHT22;45905;50.570;10.428;2023-05-27T12:10:25;21.10;35.70
60033;DHT22;45905;50.570;10.428;2023-05-27T12:12:52;21.20;34.20
60033;DHT22;45905;50.570;10.428;2023-05-27T12:15:20;21.40;34.80
60033;DHT22;45905;50.570;10.428;2023-05-27T12:17:47;21.10;35.80
60033;DHT22;45905;50.570;10.428;2023-05-27T12:20:14;21.50;35.00
60033;DHT22;45905;50.570;10.428;2023-05-27T12:22:41;21.60;35.00
60033;DHT22;45905;50.570;10.428;2023-05-27T12:25:09;21.70;35.30
60033;DHT22;45905;50.570;10.428;2023-05-27T12:27:36;21.70;33.80
60033;DHT22;45905;50.570;10.428;2023-05-27T12:30:03;21.90;35.70
60033;DHT22;45905;50.570;10.428;2023-05-27T12:32:31;22.20;35.00
60033;DHT22;45905;50.570;10.428;2023-05-27T12:34:58;22.30;35.70
60033;DHT22;45905;50.570;10.428;2023-05-27T12:37:25;22.50;36.20
60033;DHT22;45905;50.570;10.428;2023-05-27T12:39:54;22.40;37.10
60033;DHT22;45905;50.570;10.428;2023-05-27T12:42:21;22.50;37.00
60033;DHT22;45905;50.570;10.428;2023-05-27T12:44:49;22.70;36.70
60033;DHT22;45905;50.570;10.428;2023-05-27T12:47:16;22.90;37.80
60033;DHT22;45905;50.570;10.428;2023-05-27T12:49:43;23.10;38.10
60033;DHT22;45905;50.570;10.428;2023-05-27T12:52:11;23.10;38.40
60033;DHT22;45905;50.570;10.428;2023-05-27T12:54:38;23.30;37.80
60033;DHT22;45905;50.570;10.428;2023-05-27T12:57:05;23.50;37.00
60033;DHT22;45905;50.570;10.428;2023-05-27T12:59:32;23.60;38.00
60033;DHT22;45905;50.570;10.428;2023-05-27T13:02:00;23.70;38.00
60033;DHT22;45905;50.570;10.428;2023-05-27T13:04:27;23.90;37.00
60033;DHT22;45905;50.570;10.428;2023-05-27T13:06:55;24.00;36.80
60033;DHT22;45905;50.570;10.428;2023-05-27T13:09:22;24.20;37.20
60033;DHT22;45905;50.570;10.428;2023-05-27T13:11:50;24.40;39.30
60033;DHT22;45905;50.570;10.428;2023-05-27T13:14:17;24.60;38.60
60033;DHT22;45905;50.570;10.428;2023-05-27T13:16:44;24.80;38.10
60033;DHT22;45905;50.570;10.428;2023-05-27T13:19:11;25.00;38.80
60033;DHT22;45905;50.570;10.428;2023-05-27T13:21:39;25.20;39.40
60033;DHT22;45905;50.570;10.428;2023-05-27T13:24:06;25.40;39.10
60033;DHT22;45905;50.570;10.428;2023-05-27T13:26:33;25.70;38.70
60033;DHT22;45905;50.570;10.428;2023-05-27T13:29:01;25.90;37.20
60033;DHT22;45905;50.570;10.428;2023-05-27T13:31:28;26.00;38.70
60033;DHT22;45905;50.570;10.428;2023-05-27T13:33:55;26.20;40.20
60033;DHT22;45905;50.570;10.428;2023-05-27T13:36:23;26.40;38.30
60033;DHT22;45905;50.570;10.428;2023-05-27T13:38:50;26.30;37.20
60033;DHT22;45905;50.570;10.428;2023-05-27T13:41:17;26.30;37.60
60033;DHT22;45905;50.570;10.428;2023-05-27T13:43:45;26.30;38.30
60033;DHT22;45905;50.570;10.428;2023-05-27T13:46:12;26.40;39.00
60033;DHT22;45905;50.570;10.428;2023-05-27T13:48:39;26.50;38.20
60033;DHT22;45905;50.570;10.428;2023-05-27T13:51:06;26.60;39.00
60033;DHT22;45905;50.570;10.428;2023-05-27T13:53:34;26.70;38.80
60033;DHT22;45905;50.570;10.428;2023-05-27T13:56:01;26.80;37.90
60033;DHT22;45905;50.570;10.428;2023-05-27T13:58:28;26.60;37.30
60033;DHT22;45905;50.570;10.428;2023-05-27T14:00:56;26.60;37.80
60033;DHT22;45905;50.570;10.428;2023-05-27T14:03:23;26.40;36.70
60033;DHT22;45905;50.570;10.428;2023-05-27T14:05:50;26.40;37.10
60033;DHT22;45905;50.570;10.428;2023-05-27T14:08:18;26.30;37.40
60033;DHT22;45905;50.570;10.428;2023-05-27T14:10:45;26.20;37.70
60033;DHT22;45905;50.570;10.428;2023-05-27T14:13:13;26.10;38.00
60033;DHT22;45905;50.570;10.428;2023-05-27T14:15:40;26.10;37.90
60033;DHT22;45905;50.570;10.428;2023-05-27T14:18:07;26.00;37.50
60033;DHT22;45905;50.570;10.428;2023-05-27T14:20:34;25.90;37.70
60033;DHT22;45905;50.570;10.428;2023-05-27T14:23:02;25.80;38.10
60033;DHT22;45905;50.570;10.428;2023-05-27T14:25:31;25.80;38.10
60033;DHT22;45905;50.570;10.428;2023-05-27T14:27:59;25.70;37.50
60033;DHT22;45905;50.570;10.428;2023-05-27T14:30:30;25.60;37.50
60033;DHT22;45905;50.570;10.428;2023-05-27T14:33:06;25.60;38.80
60033;DHT22;45905;50.570;10.428;2023-05-27T14:35:38;25.70;38.50
60033;DHT22;45905;50.570;10.428;2023-05-27T14:38:06;25.70;38.90
60033;DHT22;45905;50.570;10.428;2023-05-27T14:40:33;25.80;39.00
60033;DHT22;45905;50.570;10.428;2023-05-27T14:43:01;25.90;39.70
60033;DHT22;45905;50.570;10.428;2023-05-27T14:45:29;26.00;39.50
60033;DHT22;45905;50.570;10.428;2023-05-27T14:47:56;26.10;38.00
60033;DHT22;45905;50.570;10.428;2023-05-27T14:50:23;26.00;37.30
60033;DHT22;45905;50.570;10.428;2023-05-27T14:52:53;25.90;37.80
60033;DHT22;45905;50.570;10.428;2023-05-27T14:55:20;25.70;38.40
60033;DHT22;45905;50.570;10.428;2023-05-27T14:57:48;25.60;39.50
60033;DHT22;45905;50.570;10.428;2023-05-27T15:00:15;25.50;38.60
60033;DHT22;45905;50.570;10.428;2023-05-27T15:02:42;25.30;38.80
60033;DHT22;45905;50.570;10.428;2023-05-27T15:05:10;25.20;39.40
60033;DHT22;45905;50.570;10.428;2023-05-27T15:07:38;25.10;39.10
60033;DHT22;45905;50.570;10.428;2023-05-27T15:10:06;25.00;40.00
60033;DHT22;45905;50.570;10.428;2023-05-27T15:12:42;24.90;40.10
60033;DHT22;45905;50.570;10.428;2023-05-27T15:15:14;24.70;39.80
60033;DHT22;45905;50.570;10.428;2023-05-27T15:17:47;24.90;40.40
60033;DHT22;45905;50.570;10.428;2023-05-27T15:20:16;24.90;40.30
60033;DHT22;45905;50.570;10.428;2023-05-27T15:22:45;24.90;40.80
60033;DHT22;45905;50.570;10.428;2023-05-27T15:25:13;25.00;41.40
60033;DHT22;45905;50.570;10.428;2023-05-27T15:27:41;28.60;43.20
60033;DHT22;45905;50.570;10.428;2023-05-27T15:30:09;25.20;41.20
60033;DHT22;45905;50.570;10.428;2023-05-27T15:32:36;25.20;40.50
60033;DHT22;45905;50.570;10.428;2023-05-27T15:35:04;25.20;40.90
60033;DHT22;45905;50.570;10.428;2023-05-27T15:37:32;25.20;40.80
60033;DHT22;45905;50.570;10.428;2023-05-27T15:40:01;25.20;41.30
60033;DHT22;45905;50.570;10.428;2023-05-27T15:42:29;25.10;41.30
60033;DHT22;45905;50.570;10.428;2023-05-27T15:44:56;24.90;41.20
60033;DHT22;45905;50.570;10.428;2023-05-27T15:47:23;24.70;41.60
60033;DHT22;45905;50.570;10.428;2023-05-27T15:49:50;24.60;42.20
60033;DHT22;45905;50.570;10.428;2023-05-27T15:52:17;24.60;42.70
60033;DHT22;45905;50.570;10.428;2023-05-27T15:54:45;24.60;42.10
60033;DHT22;45905;50.570;10.428;2023-05-27T15:57:12;24.60;42.00
60033;DHT22;45905;50.570;10.428;2023-05-27T15:59:39;24.60;42.30
60033;DHT22;45905;50.570;10.428;2023-05-27T16:02:09;24.50;42.10
60033;DHT22;45905;50.570;10.428;2023-05-27T16:04:37;24.50;42.90
60033;DHT22;45905;50.570;10.428;2023-05-27T16:07:04;24.50;42.80
60033;DHT22;45905;50.570;10.428;2023-05-27T16:09:32;24.40;42.50
60033;DHT22;45905;50.570;10.428;2023-05-27T16:12:00;24.40;42.70
60033;DHT22;45905;50.570;10.428;2023-05-27T16:14:28;24.40;43.10
60033;DHT22;45905;50.570;10.428;2023-05-27T16:16:55;24.40;43.10
60033;DHT22;45905;50.570;10.428;2023-05-27T16:19:23;24.30;42.80
60033;DHT22;45905;50.570;10.428;2023-05-27T16:21:50;24.20;43.20
60033;DHT22;45905;50.570;10.428;2023-05-27T16:24:17;24.20;43.30
60033;DHT22;45905;50.570;10.428;2023-05-27T16:26:44;24.10;42.90
60033;DHT22;45905;50.570;10.428;2023-05-27T16:29:11;24.10;43.20
60033;DHT22;45905;50.570;10.428;2023-05-27T16:31:38;24.10;43.30
60033;DHT22;45905;50.570;10.428;2023-05-27T16:34:06;24.00;43.90
60033;DHT22;45905;50.570;10.428;2023-05-27T16:36:34;24.10;43.10
60033;DHT22;45905;50.570;10.428;2023-05-27T16:39:06;24.10;43.60
60033;DHT22;45905;50.570;10.428;2023-05-27T16:41:33;24.00;43.10
60033;DHT22;45905;50.570;10.428;2023-05-27T16:44:01;23.90;43.50
60033;DHT22;45905;50.570;10.428;2023-05-27T16:46:28;23.90;43.50
60033;DHT22;45905;50.570;10.428;2023-05-27T16:48:55;23.80;43.60